createdAt,value
2023-02-16T00:00:21.812Z,0.00
2023-02-16T00:01:21.826Z,0.00
2023-02-16T00:02:21.836Z,0.00
2023-02-16T00:03:21.850Z,0.00
2023-02-16T00:04:21.764Z,0.00
2023-02-16T00:05:21.751Z,0.00
2023-02-16T00:06:21.733Z,0.00
2023-02-16T00:07:21.726Z,0.00
2023-02-16T00:08:21.751Z,0.00
2023-02-16T00:09:21.706Z,0.00
2023-02-16T00:10:21.789Z,0.00
2023-02-16T00:11:21.724Z,0.00
2023-02-16T00:12:21.732Z,0.00
2023-02-16T00:13:21.662Z,0.00
2023-02-16T00:14:21.734Z,0.00
2023-02-16T00:15:21.649Z,0.00
2023-02-16T00:16:21.778Z,0.00
2023-02-16T00:17:21.683Z,0.00
2023-02-16T00:18:21.636Z,0.00
2023-02-16T00:19:21.650Z,0.00
2023-02-16T00:20:21.615Z,0.00
2023-02-16T00:21:21.624Z,0.00
2023-02-16T00:22:21.605Z,0.00
2023-02-16T00:23:21.621Z,0.00
2023-02-16T00:24:21.564Z,0.00
2023-02-16T00:25:21.526Z,0.00
2023-02-16T00:26:21.580Z,0.00
2023-02-16T00:27:21.534Z,0.00
2023-02-16T00:28:21.523Z,0.00
2023-02-16T00:29:21.510Z,0.00
2023-02-16T00:30:21.578Z,0.00
2023-02-16T00:31:21.571Z,0.00
2023-02-16T00:32:21.513Z,0.00
2023-02-16T00:33:21.438Z,0.00
2023-02-16T00:34:21.454Z,0.00
2023-02-16T00:35:21.428Z,0.00
2023-02-16T00:36:21.418Z,0.00
2023-02-16T00:37:21.418Z,0.00
2023-02-16T00:38:21.398Z,0.00
2023-02-16T00:39:21.395Z,0.00
2023-02-16T00:40:21.399Z,0.00
2023-02-16T00:41:21.371Z,0.00
2023-02-16T00:42:21.389Z,0.00
2023-02-16T00:43:21.342Z,0.00
2023-02-16T00:44:21.341Z,0.00
2023-02-16T00:45:21.312Z,0.00
2023-02-16T00:46:21.395Z,0.00
2023-02-16T00:47:21.362Z,0.00
2023-02-16T00:48:21.301Z,0.00
2023-02-16T00:49:21.282Z,0.00
2023-02-16T00:50:21.298Z,0.00
2023-02-16T00:51:26.089Z,0.00
2023-02-16T00:52:22.261Z,0.00
2023-02-16T00:53:21.230Z,0.00
2023-02-16T00:54:21.234Z,0.00
2023-02-16T00:55:21.225Z,0.00
2023-02-16T00:56:21.210Z,0.00
2023-02-16T00:57:21.261Z,0.00
2023-02-16T00:58:21.192Z,0.00
2023-02-16T00:59:21.174Z,0.00
2023-02-16T01:00:21.218Z,0.00
2023-02-16T01:01:21.225Z,0.00
2023-02-16T01:02:21.166Z,0.00
2023-02-16T01:03:21.136Z,0.00
2023-02-16T01:04:21.234Z,0.00
2023-02-16T01:05:21.112Z,0.00
2023-02-16T01:06:21.112Z,0.00
2023-02-16T01:07:21.101Z,0.00
2023-02-16T01:08:21.103Z,0.00
2023-02-16T01:09:21.060Z,0.00
2023-02-16T01:10:21.069Z,0.00
2023-02-16T01:11:21.059Z,0.00
2023-02-16T01:12:21.093Z,0.00
2023-02-16T01:13:21.027Z,0.00
2023-02-16T01:14:21.011Z,0.00
2023-02-16T01:15:21.001Z,0.00
2023-02-16T01:16:21.004Z,0.00
2023-02-16T01:17:21.028Z,0.00
2023-02-16T01:18:20.981Z,0.00
2023-02-16T01:19:20.969Z,0.00
2023-02-16T01:20:20.939Z,0.00
2023-02-16T01:21:20.950Z,0.00
2023-02-16T01:22:20.934Z,0.00
2023-02-16T01:23:20.920Z,0.00
2023-02-16T01:24:20.897Z,0.00
2023-02-16T01:25:20.910Z,0.00
2023-02-16T01:26:20.901Z,0.00
2023-02-16T01:27:20.871Z,0.00
2023-02-16T01:28:20.867Z,0.00
2023-02-16T01:29:20.858Z,0.00
2023-02-16T01:30:20.955Z,0.00
2023-02-16T01:31:20.938Z,0.00
2023-02-16T01:32:20.968Z,0.00
2023-02-16T01:33:20.843Z,0.00
2023-02-16T01:34:20.801Z,0.00
2023-02-16T01:35:20.789Z,0.00
2023-02-16T01:36:20.792Z,0.00
2023-02-16T01:37:20.772Z,0.00
2023-02-16T01:38:20.784Z,0.00
2023-02-16T01:39:20.777Z,0.00
2023-02-16T01:40:20.729Z,0.00
2023-02-16T01:41:20.745Z,0.00
2023-02-16T01:42:20.712Z,0.00
2023-02-16T01:43:20.721Z,0.00
2023-02-16T01:44:20.694Z,0.00
2023-02-16T01:45:20.688Z,0.00
2023-02-16T01:46:20.735Z,0.00
2023-02-16T01:47:20.669Z,0.00
2023-02-16T01:48:20.661Z,0.00
2023-02-16T01:49:20.669Z,0.00
2023-02-16T01:50:20.623Z,0.00
2023-02-16T01:51:20.641Z,0.00
2023-02-16T01:52:20.621Z,0.00
2023-02-16T01:53:20.613Z,0.00
2023-02-16T01:54:20.594Z,0.00
2023-02-16T01:55:20.584Z,0.00
2023-02-16T01:56:20.593Z,0.00
2023-02-16T01:57:20.581Z,0.00
2023-02-16T01:58:20.545Z,0.00
2023-02-16T01:59:20.547Z,0.00
2023-02-16T02:00:20.522Z,0.00
2023-02-16T02:01:20.610Z,0.00
2023-02-16T02:02:20.526Z,0.00
2023-02-16T02:03:20.496Z,0.00
2023-02-16T02:04:20.484Z,0.00
2023-02-16T02:05:20.476Z,0.00
2023-02-16T02:06:20.473Z,0.00
2023-02-16T02:07:20.458Z,0.00
2023-02-16T02:08:20.437Z,0.00
2023-02-16T02:09:20.426Z,0.00
2023-02-16T02:10:20.431Z,0.00
2023-02-16T02:11:20.454Z,0.00
2023-02-16T02:12:20.394Z,0.00
2023-02-16T02:13:20.405Z,0.00
2023-02-16T02:14:20.379Z,0.00
2023-02-16T02:15:20.372Z,0.00
2023-02-16T02:16:20.470Z,0.00
2023-02-16T02:17:20.358Z,0.00
2023-02-16T02:18:20.344Z,0.00
2023-02-16T02:19:20.325Z,0.00
2023-02-16T02:20:20.312Z,0.00
2023-02-16T02:21:20.324Z,0.00
2023-02-16T02:22:20.296Z,0.00
2023-02-16T02:23:20.290Z,0.00
2023-02-16T02:24:20.264Z,0.00
2023-02-16T02:25:20.266Z,0.00
2023-02-16T02:26:20.272Z,0.00
2023-02-16T02:27:20.256Z,0.00
2023-02-16T02:28:20.223Z,0.00
2023-02-16T02:29:20.229Z,0.00
2023-02-16T02:30:20.286Z,0.00
2023-02-16T02:31:20.297Z,0.00
2023-02-16T02:32:20.211Z,0.00
2023-02-16T02:33:20.206Z,0.00
2023-02-16T02:34:20.155Z,0.00
2023-02-16T02:35:20.156Z,0.00
2023-02-16T02:36:20.144Z,0.00
2023-02-16T02:37:20.134Z,0.00
2023-02-16T02:38:20.122Z,0.00
2023-02-16T02:39:20.103Z,0.00
2023-02-16T02:40:20.099Z,0.00
2023-02-16T02:41:20.126Z,0.00
2023-02-16T02:42:20.077Z,0.00
2023-02-16T02:43:20.074Z,0.00
2023-02-16T02:44:20.054Z,0.00
2023-02-16T02:45:20.034Z,0.00
2023-02-16T02:46:20.103Z,0.00
2023-02-16T02:47:20.035Z,0.00
2023-02-16T02:48:20.004Z,0.00
2023-02-16T02:49:20.004Z,0.00
2023-02-16T02:50:19.987Z,0.00
2023-02-16T02:51:20.011Z,0.00
2023-02-16T02:52:19.965Z,0.00
2023-02-16T02:53:19.955Z,0.00
2023-02-16T02:54:19.971Z,0.00
2023-02-16T02:55:19.935Z,0.00
2023-02-16T02:56:19.929Z,0.00
2023-02-16T02:57:19.915Z,0.00
2023-02-16T02:58:19.914Z,0.00
2023-02-16T02:59:19.913Z,0.00
2023-02-16T03:00:19.891Z,0.00
2023-02-16T03:01:19.967Z,0.00
2023-02-16T03:02:19.935Z,0.00
2023-02-16T03:03:19.855Z,0.00
2023-02-16T03:04:19.849Z,0.00
2023-02-16T03:05:19.836Z,0.00
2023-02-16T03:06:19.846Z,0.00
2023-02-16T03:07:19.816Z,0.00
2023-02-16T03:08:19.799Z,0.00
2023-02-16T03:09:19.795Z,0.00
2023-02-16T03:10:19.790Z,0.00
2023-02-16T03:11:19.793Z,0.00
2023-02-16T03:12:19.759Z,0.00
2023-02-16T03:13:19.745Z,0.00
2023-02-16T03:14:19.747Z,0.00
2023-02-16T03:15:19.724Z,0.00
2023-02-16T03:16:19.741Z,0.00
2023-02-16T03:17:19.707Z,0.00
2023-02-16T03:18:19.702Z,0.00
2023-02-16T03:19:19.684Z,0.00
2023-02-16T03:20:19.675Z,0.00
2023-02-16T03:21:19.665Z,0.00
2023-02-16T03:22:19.644Z,0.00
2023-02-16T03:23:19.657Z,0.00
2023-02-16T03:24:19.625Z,0.00
2023-02-16T03:25:19.623Z,0.00
2023-02-16T03:26:19.620Z,0.00
2023-02-16T03:27:19.597Z,0.00
2023-02-16T03:28:19.607Z,0.00
2023-02-16T03:29:19.591Z,0.00
2023-02-16T03:30:19.690Z,0.00
2023-02-16T03:31:19.698Z,0.00
2023-02-16T03:32:19.577Z,0.00
2023-02-16T03:33:19.542Z,0.00
2023-02-16T03:34:19.514Z,0.00
2023-02-16T03:35:19.507Z,0.00
2023-02-16T03:36:19.503Z,0.00
2023-02-16T03:37:19.498Z,0.00
2023-02-16T03:38:19.474Z,0.00
2023-02-16T03:39:19.463Z,0.00
2023-02-16T03:40:19.443Z,0.00
2023-02-16T03:41:19.463Z,0.00
2023-02-16T03:42:19.427Z,0.00
2023-02-16T03:43:19.424Z,0.00
2023-02-16T03:44:19.404Z,0.00
2023-02-16T03:45:19.403Z,0.00
2023-02-16T03:46:19.543Z,0.00
2023-02-16T03:47:19.384Z,0.00
2023-02-16T03:48:19.398Z,0.00
2023-02-16T03:49:19.379Z,0.00
2023-02-16T03:50:19.354Z,0.00
2023-02-16T03:51:19.360Z,0.00
2023-02-16T03:52:19.322Z,0.00
2023-02-16T03:53:19.313Z,0.00
2023-02-16T03:54:19.304Z,0.00
2023-02-16T03:55:19.304Z,0.00
2023-02-16T03:56:19.328Z,0.00
2023-02-16T03:57:19.278Z,0.00
2023-02-16T03:58:19.343Z,0.00
2023-02-16T03:59:19.266Z,0.00
2023-02-16T04:00:19.240Z,0.00
2023-02-16T04:01:19.246Z,0.00
2023-02-16T04:02:19.264Z,0.00
2023-02-16T04:03:19.259Z,0.00
2023-02-16T04:04:19.238Z,0.00
2023-02-16T04:05:19.234Z,0.00
2023-02-16T04:06:19.186Z,0.00
2023-02-16T04:07:19.168Z,0.00
2023-02-16T04:08:19.162Z,0.00
2023-02-16T04:09:19.146Z,0.00
2023-02-16T04:10:19.141Z,0.00
2023-02-16T04:11:19.141Z,0.00
2023-02-16T04:12:19.108Z,0.00
2023-02-16T04:13:19.114Z,0.00
2023-02-16T04:14:19.100Z,0.00
2023-02-16T04:15:19.120Z,0.00
2023-02-16T04:16:19.125Z,0.00
2023-02-16T04:17:19.069Z,0.00
2023-02-16T04:18:19.050Z,0.00
2023-02-16T04:19:19.060Z,0.00
2023-02-16T04:20:19.047Z,0.00
2023-02-16T04:21:19.026Z,0.00
2023-02-16T04:22:19.055Z,0.00
2023-02-16T04:23:18.999Z,0.00
2023-02-16T04:24:18.992Z,0.00
2023-02-16T04:25:19.004Z,0.00
2023-02-16T04:26:18.978Z,0.00
2023-02-16T04:27:18.956Z,0.00
2023-02-16T04:28:18.948Z,0.00
2023-02-16T04:29:18.947Z,0.00
2023-02-16T04:30:18.990Z,0.00
2023-02-16T04:31:19.029Z,0.00
2023-02-16T04:32:18.936Z,0.00
2023-02-16T04:33:18.881Z,0.00
2023-02-16T04:34:18.876Z,0.00
2023-02-16T04:35:18.870Z,0.00
2023-02-16T04:36:18.866Z,0.00
2023-02-16T04:37:18.850Z,0.00
2023-02-16T04:38:18.844Z,0.00
2023-02-16T04:39:18.825Z,0.00
2023-02-16T04:40:18.820Z,0.00
2023-02-16T04:41:18.827Z,0.00
2023-02-16T04:42:18.804Z,0.00
2023-02-16T04:43:18.774Z,0.00
2023-02-16T04:44:18.774Z,0.00
2023-02-16T04:45:18.754Z,0.00
2023-02-16T04:46:18.824Z,0.00
2023-02-16T04:47:18.745Z,0.00
2023-02-16T04:48:18.725Z,0.00
2023-02-16T04:49:18.725Z,0.00
2023-02-16T04:50:18.715Z,0.00
2023-02-16T04:51:18.694Z,0.00
2023-02-16T04:52:18.725Z,0.00
2023-02-16T04:53:18.693Z,0.00
2023-02-16T04:54:18.666Z,0.00
2023-02-16T04:55:18.655Z,0.00
2023-02-16T04:56:18.654Z,0.00
2023-02-16T04:57:18.634Z,0.00
2023-02-16T04:58:18.626Z,0.00
2023-02-16T04:59:18.604Z,0.00
2023-02-16T05:00:18.604Z,0.00
2023-02-16T05:01:18.769Z,0.00
2023-02-16T05:02:18.585Z,0.00
2023-02-16T05:03:18.569Z,0.00
2023-02-16T05:04:18.593Z,0.00
2023-02-16T05:05:18.545Z,0.00
2023-02-16T05:06:18.571Z,0.00
2023-02-16T05:07:18.515Z,0.00
2023-02-16T05:08:20.817Z,0.00
2023-02-16T05:09:18.507Z,0.00
2023-02-16T05:10:18.495Z,0.00
2023-02-16T05:11:18.500Z,0.00
2023-02-16T05:12:18.487Z,0.00
2023-02-16T05:13:18.471Z,0.00
2023-02-16T05:14:18.472Z,0.00
2023-02-16T05:15:18.441Z,0.00
2023-02-16T05:16:18.477Z,0.00
2023-02-16T05:17:18.437Z,0.00
2023-02-16T05:18:18.408Z,0.00
2023-02-16T05:19:18.399Z,0.00
2023-02-16T05:20:18.387Z,0.00
2023-02-16T05:21:18.377Z,0.00
2023-02-16T05:22:18.385Z,0.00
2023-02-16T05:23:18.376Z,0.00
2023-02-16T05:24:18.348Z,0.00
2023-02-16T05:25:18.337Z,0.00
2023-02-16T05:26:18.636Z,0.00
2023-02-16T05:27:18.311Z,0.00
2023-02-16T05:28:18.387Z,0.00
2023-02-16T05:29:18.287Z,0.00
2023-02-16T05:30:18.402Z,0.00
2023-02-16T05:31:18.797Z,0.00
2023-02-16T05:32:18.322Z,0.00
2023-02-16T05:33:18.243Z,0.00
2023-02-16T05:34:18.236Z,0.00
2023-02-16T05:35:18.227Z,0.00
2023-02-16T05:36:18.244Z,0.00
2023-02-16T05:37:18.207Z,0.00
2023-02-16T05:38:18.200Z,0.00
2023-02-16T05:39:18.182Z,0.00
2023-02-16T05:40:18.279Z,0.00
2023-02-16T05:41:18.208Z,0.00
2023-02-16T05:42:18.278Z,0.00
2023-02-16T05:43:18.143Z,0.00
2023-02-16T05:44:18.274Z,0.00
2023-02-16T05:45:18.126Z,0.00
2023-02-16T05:46:18.236Z,0.00
2023-02-16T05:47:18.102Z,0.00
2023-02-16T05:48:18.102Z,0.00
2023-02-16T05:49:18.186Z,0.00
2023-02-16T05:50:18.083Z,0.00
2023-02-16T05:51:18.073Z,0.00
2023-02-16T05:52:18.071Z,0.00
2023-02-16T05:53:18.044Z,0.00
2023-02-16T05:54:18.035Z,0.00
2023-02-16T05:55:18.026Z,0.00
2023-02-16T05:56:18.030Z,0.00
2023-02-16T05:57:18.000Z,0.00
2023-02-16T05:58:17.993Z,0.00
2023-02-16T05:59:17.974Z,0.00
2023-02-16T06:00:17.998Z,0.00
2023-02-16T06:01:18.003Z,0.00
2023-02-16T06:02:17.970Z,0.00
2023-02-16T06:03:17.926Z,0.00
2023-02-16T06:04:17.935Z,0.00
2023-02-16T06:05:17.925Z,0.00
2023-02-16T06:06:17.937Z,0.00
2023-02-16T06:07:17.918Z,0.00
2023-02-16T06:08:17.896Z,0.00
2023-02-16T06:09:17.871Z,0.00
2023-02-16T06:10:17.876Z,0.00
2023-02-16T06:11:17.856Z,0.00
2023-02-16T06:12:17.863Z,0.00
2023-02-16T06:13:17.837Z,0.00
2023-02-16T06:14:18.080Z,0.00
2023-02-16T06:15:17.845Z,0.00
2023-02-16T06:16:17.845Z,0.00
2023-02-16T06:17:17.786Z,0.00
2023-02-16T06:18:17.798Z,0.00
2023-02-16T06:19:17.770Z,0.00
2023-02-16T06:20:17.768Z,0.00
2023-02-16T06:21:17.761Z,0.00
2023-02-16T06:22:17.738Z,0.00
2023-02-16T06:23:17.717Z,0.00
2023-02-16T06:24:17.729Z,0.00
2023-02-16T06:25:17.707Z,0.00
2023-02-16T06:26:17.707Z,0.00
2023-02-16T06:27:17.685Z,0.00
2023-02-16T06:28:17.693Z,0.00
2023-02-16T06:29:17.666Z,0.00
2023-02-16T06:30:17.698Z,0.00
2023-02-16T06:31:17.790Z,0.00
2023-02-16T06:32:17.745Z,0.00
2023-02-16T06:33:17.619Z,5.62
2023-02-16T06:34:17.606Z,5.62
2023-02-16T06:35:17.589Z,5.62
2023-02-16T06:36:17.645Z,5.62
2023-02-16T06:37:17.566Z,5.62
2023-02-16T06:38:17.616Z,5.62
2023-02-16T06:39:17.545Z,11.25
2023-02-16T06:40:17.577Z,11.25
2023-02-16T06:41:17.545Z,11.25
2023-02-16T06:42:17.525Z,11.25
2023-02-16T06:43:17.521Z,16.88
2023-02-16T06:44:17.510Z,16.88
2023-02-16T06:45:17.486Z,22.50
2023-02-16T06:46:17.522Z,22.50
2023-02-16T06:47:17.476Z,28.12
2023-02-16T06:48:17.517Z,33.75
2023-02-16T06:49:17.457Z,33.75
2023-02-16T06:50:17.461Z,39.38
2023-02-16T06:51:17.461Z,45.00
2023-02-16T06:52:17.489Z,45.00
2023-02-16T06:53:17.419Z,50.62
2023-02-16T06:54:17.403Z,56.25
2023-02-16T06:55:17.387Z,56.25
2023-02-16T06:56:17.407Z,56.25
2023-02-16T06:57:17.358Z,56.25
2023-02-16T06:58:17.380Z,67.50
2023-02-16T06:59:17.336Z,73.12
2023-02-16T07:00:17.328Z,73.12
2023-02-16T07:01:17.375Z,73.12
2023-02-16T07:02:17.306Z,78.75
2023-02-16T07:03:17.312Z,78.75
2023-02-16T07:04:17.303Z,84.38
2023-02-16T07:05:17.287Z,90.00
2023-02-16T07:06:17.272Z,90.00
2023-02-16T07:07:17.260Z,95.62
2023-02-16T07:08:17.250Z,101.25
2023-02-16T07:09:17.246Z,106.88
2023-02-16T07:10:17.220Z,112.50
2023-02-16T07:11:17.277Z,118.12
2023-02-16T07:12:17.218Z,118.12
2023-02-16T07:13:17.209Z,123.75
2023-02-16T07:14:17.191Z,129.38
2023-02-16T07:15:17.173Z,135.00
2023-02-16T07:16:17.223Z,140.62
2023-02-16T07:17:17.155Z,146.25
2023-02-16T07:18:17.152Z,151.88
2023-02-16T07:19:17.598Z,157.50
2023-02-16T07:20:17.116Z,157.50
2023-02-16T07:21:17.118Z,163.12
2023-02-16T07:22:17.215Z,168.75
2023-02-16T07:23:17.088Z,180.00
2023-02-16T07:24:17.138Z,185.62
2023-02-16T07:25:17.057Z,191.25
2023-02-16T07:26:17.078Z,196.88
2023-02-16T07:27:17.027Z,202.50
2023-02-16T07:28:17.028Z,208.12
2023-02-16T07:29:17.019Z,208.12
2023-02-16T07:30:17.022Z,213.75
2023-02-16T07:31:17.121Z,213.75
2023-02-16T07:32:17.017Z,213.75
2023-02-16T07:33:16.984Z,213.75
2023-02-16T07:34:16.971Z,213.75
2023-02-16T07:35:16.947Z,213.75
2023-02-16T07:36:16.956Z,213.75
2023-02-16T07:37:16.927Z,213.75
2023-02-16T07:38:16.945Z,208.12
2023-02-16T07:39:16.899Z,202.50
2023-02-16T07:40:16.985Z,191.25
2023-02-16T07:41:16.886Z,191.25
2023-02-16T07:42:16.868Z,185.62
2023-02-16T07:43:16.859Z,185.62
2023-02-16T07:44:16.894Z,180.00
2023-02-16T07:45:16.829Z,185.62
2023-02-16T07:46:16.850Z,180.00
2023-02-16T07:47:16.813Z,174.38
2023-02-16T07:48:16.851Z,163.12
2023-02-16T07:49:16.790Z,151.88
2023-02-16T07:50:16.814Z,146.25
2023-02-16T07:51:16.773Z,135.00
2023-02-16T07:52:16.757Z,129.38
2023-02-16T07:53:16.755Z,129.38
2023-02-16T07:54:16.740Z,123.75
2023-02-16T07:55:16.728Z,129.38
2023-02-16T07:56:16.768Z,135.00
2023-02-16T07:57:16.708Z,140.62
2023-02-16T07:58:16.705Z,151.88
2023-02-16T07:59:16.697Z,168.75
2023-02-16T08:00:16.673Z,185.62
2023-02-16T08:01:16.656Z,196.88
2023-02-16T08:02:16.731Z,213.75
2023-02-16T08:03:16.741Z,219.38
2023-02-16T08:04:16.636Z,225.00
2023-02-16T08:05:16.624Z,225.00
2023-02-16T08:06:16.644Z,225.00
2023-02-16T08:07:16.624Z,225.00
2023-02-16T08:08:16.624Z,230.62
2023-02-16T08:09:16.565Z,230.62
2023-02-16T08:10:16.622Z,230.62
2023-02-16T08:11:16.573Z,236.25
2023-02-16T08:12:16.598Z,247.50
2023-02-16T08:13:16.529Z,258.75
2023-02-16T08:14:16.527Z,275.62
2023-02-16T08:15:16.510Z,292.50
2023-02-16T08:16:16.613Z,303.75
2023-02-16T08:17:16.503Z,320.62
2023-02-16T08:18:16.484Z,337.50
2023-02-16T08:19:16.479Z,360.00
2023-02-16T08:20:16.462Z,376.88
2023-02-16T08:21:16.455Z,393.75
2023-02-16T08:22:16.436Z,405.00
2023-02-16T08:23:16.434Z,410.62
2023-02-16T08:24:16.443Z,416.25
2023-02-16T08:25:16.484Z,410.62
2023-02-16T08:26:16.485Z,405.00
2023-02-16T08:27:16.374Z,393.75
2023-02-16T08:28:16.385Z,382.50
2023-02-16T08:29:16.356Z,371.25
2023-02-16T08:30:16.449Z,348.75
2023-02-16T08:31:16.373Z,331.88
2023-02-16T08:32:16.389Z,320.62
2023-02-16T08:33:16.316Z,298.12
2023-02-16T08:34:16.316Z,281.25
2023-02-16T08:35:16.298Z,264.38
2023-02-16T08:36:16.316Z,253.12
2023-02-16T08:37:16.275Z,247.50
2023-02-16T08:38:16.267Z,236.25
2023-02-16T08:39:16.249Z,241.88
2023-02-16T08:40:16.285Z,236.25
2023-02-16T08:41:16.230Z,236.25
2023-02-16T08:42:16.245Z,236.25
2023-02-16T08:43:16.216Z,236.25
2023-02-16T08:44:16.320Z,236.25
2023-02-16T08:45:16.189Z,236.25
2023-02-16T08:46:16.195Z,236.25
2023-02-16T08:47:16.168Z,241.88
2023-02-16T08:48:16.170Z,253.12
2023-02-16T08:49:16.145Z,264.38
2023-02-16T08:50:16.183Z,275.62
2023-02-16T08:51:16.125Z,275.62
2023-02-16T08:52:16.230Z,258.75
2023-02-16T08:53:16.098Z,241.88
2023-02-16T08:54:16.113Z,230.62
2023-02-16T08:55:16.083Z,219.38
2023-02-16T08:56:16.075Z,213.75
2023-02-16T08:57:16.269Z,219.38
2023-02-16T08:58:16.042Z,236.25
2023-02-16T08:59:16.031Z,258.75
2023-02-16T09:00:16.026Z,292.50
2023-02-16T09:01:16.070Z,320.62
2023-02-16T09:02:16.072Z,343.12
2023-02-16T09:03:16.004Z,354.38
2023-02-16T09:04:15.976Z,371.25
2023-02-16T09:05:15.964Z,399.38
2023-02-16T09:06:15.965Z,444.38
2023-02-16T09:07:15.965Z,478.12
2023-02-16T09:08:16.003Z,500.62
2023-02-16T09:09:15.932Z,534.38
2023-02-16T09:10:15.914Z,540.00
2023-02-16T09:11:15.910Z,551.25
2023-02-16T09:12:15.931Z,568.12
2023-02-16T09:13:15.885Z,551.25
2023-02-16T09:14:15.864Z,540.00
2023-02-16T09:15:15.857Z,528.75
2023-02-16T09:16:15.918Z,511.88
2023-02-16T09:17:15.837Z,517.50
2023-02-16T09:18:15.815Z,551.25
2023-02-16T09:19:15.819Z,540.00
2023-02-16T09:20:15.807Z,551.25
2023-02-16T09:21:15.787Z,556.88
2023-02-16T09:22:15.795Z,528.75
2023-02-16T09:23:15.765Z,517.50
2023-02-16T09:24:15.859Z,483.75
2023-02-16T09:25:15.742Z,461.25
2023-02-16T09:26:15.736Z,427.50
2023-02-16T09:27:15.734Z,388.12
2023-02-16T09:28:15.717Z,360.00
2023-02-16T09:29:15.696Z,326.25
2023-02-16T09:30:15.794Z,315.00
2023-02-16T09:31:15.760Z,315.00
2023-02-16T09:32:15.697Z,309.38
2023-02-16T09:33:15.650Z,320.62
2023-02-16T09:34:15.659Z,337.50
2023-02-16T09:35:15.660Z,371.25
2023-02-16T09:36:15.824Z,393.75
2023-02-16T09:37:15.634Z,421.88
2023-02-16T09:38:15.603Z,466.88
2023-02-16T09:39:15.603Z,506.25
2023-02-16T09:40:15.598Z,483.75
2023-02-16T09:41:15.568Z,472.50
2023-02-16T09:42:15.579Z,495.00
2023-02-16T09:43:15.549Z,528.75
2023-02-16T09:44:15.544Z,506.25
2023-02-16T09:45:15.563Z,517.50
2023-02-16T09:46:15.553Z,489.38
2023-02-16T09:47:15.538Z,489.38
2023-02-16T09:48:15.548Z,506.25
2023-02-16T09:49:15.483Z,540.00
2023-02-16T09:50:15.724Z,590.62
2023-02-16T09:51:15.783Z,635.62
2023-02-16T09:52:15.460Z,680.62
2023-02-16T09:53:15.441Z,714.38
2023-02-16T09:54:15.420Z,748.12
2023-02-16T09:55:15.432Z,776.25
2023-02-16T09:56:15.431Z,798.75
2023-02-16T09:57:15.403Z,810.00
2023-02-16T09:58:15.415Z,798.75
2023-02-16T09:59:15.372Z,765.00
2023-02-16T10:00:15.440Z,759.38
2023-02-16T10:01:15.381Z,725.62
2023-02-16T10:02:15.405Z,725.62
2023-02-16T10:03:15.353Z,759.38
2023-02-16T10:04:15.333Z,810.00
2023-02-16T10:05:15.302Z,849.38
2023-02-16T10:06:15.352Z,894.38
2023-02-16T10:07:15.306Z,950.62
2023-02-16T10:08:15.275Z,984.38
2023-02-16T10:09:15.254Z,1018.12
2023-02-16T10:10:15.335Z,1046.25
2023-02-16T10:11:15.256Z,1068.75
2023-02-16T10:12:15.244Z,1063.12
2023-02-16T10:13:15.223Z,995.62
2023-02-16T10:14:15.204Z,961.88
2023-02-16T10:15:15.202Z,883.12
2023-02-16T10:16:15.218Z,804.38
2023-02-16T10:17:15.210Z,798.75
2023-02-16T10:18:15.218Z,787.50
2023-02-16T10:19:15.156Z,787.50
2023-02-16T10:20:15.155Z,815.62
2023-02-16T10:21:15.129Z,877.50
2023-02-16T10:22:17.325Z,866.25
2023-02-16T10:23:15.108Z,810.00
2023-02-16T10:24:15.102Z,753.75
2023-02-16T10:25:15.097Z,646.88
2023-02-16T10:26:15.074Z,585.00
2023-02-16T10:27:15.080Z,534.38
2023-02-16T10:28:15.080Z,489.38
2023-02-16T10:29:15.051Z,461.25
2023-02-16T10:30:15.059Z,444.38
2023-02-16T10:31:15.160Z,438.75
2023-02-16T10:32:15.089Z,427.50
2023-02-16T10:33:15.031Z,421.88
2023-02-16T10:34:15.007Z,410.62
2023-02-16T10:35:14.983Z,405.00
2023-02-16T10:36:14.985Z,399.38
2023-02-16T10:37:15.057Z,399.38
2023-02-16T10:38:14.967Z,399.38
2023-02-16T10:39:14.958Z,405.00
2023-02-16T10:40:14.955Z,416.25
2023-02-16T10:41:14.967Z,427.50
2023-02-16T10:42:14.932Z,444.38
2023-02-16T10:43:14.902Z,455.62
2023-02-16T10:44:14.917Z,466.88
2023-02-16T10:45:14.898Z,466.88
2023-02-16T10:46:14.898Z,461.25
2023-02-16T10:47:14.878Z,444.38
2023-02-16T10:48:14.847Z,433.12
2023-02-16T10:49:14.840Z,433.12
2023-02-16T10:50:14.822Z,433.12
2023-02-16T10:51:14.809Z,444.38
2023-02-16T10:52:14.811Z,455.62
2023-02-16T10:53:14.807Z,472.50
2023-02-16T10:54:14.781Z,495.00
2023-02-16T10:55:14.771Z,500.62
2023-02-16T10:56:14.791Z,495.00
2023-02-16T10:57:14.769Z,483.75
2023-02-16T10:58:14.733Z,483.75
2023-02-16T10:59:14.722Z,483.75
2023-02-16T11:00:14.703Z,478.12
2023-02-16T11:01:14.716Z,466.88
2023-02-16T11:02:14.772Z,455.62
2023-02-16T11:03:14.684Z,461.25
2023-02-16T11:04:14.760Z,472.50
2023-02-16T11:05:14.656Z,495.00
2023-02-16T11:06:14.663Z,517.50
2023-02-16T11:07:14.654Z,556.88
2023-02-16T11:08:14.644Z,590.62
2023-02-16T11:09:14.617Z,624.38
2023-02-16T11:10:14.608Z,663.75
2023-02-16T11:11:14.589Z,686.25
2023-02-16T11:12:14.602Z,714.38
2023-02-16T11:13:14.569Z,748.12
2023-02-16T11:14:14.589Z,759.38
2023-02-16T11:15:14.563Z,736.88
2023-02-16T11:16:14.617Z,720.00
2023-02-16T11:17:14.547Z,720.00
2023-02-16T11:18:14.510Z,731.25
2023-02-16T11:19:14.501Z,748.12
2023-02-16T11:20:14.491Z,753.75
2023-02-16T11:21:14.492Z,753.75
2023-02-16T11:22:14.501Z,736.88
2023-02-16T11:23:14.465Z,703.12
2023-02-16T11:24:14.456Z,658.12
2023-02-16T11:25:14.432Z,590.62
2023-02-16T11:26:14.467Z,528.75
2023-02-16T11:27:14.426Z,466.88
2023-02-16T11:28:14.424Z,421.88
2023-02-16T11:29:14.414Z,382.50
2023-02-16T11:30:14.543Z,360.00
2023-02-16T11:31:14.459Z,343.12
2023-02-16T11:32:14.445Z,337.50
2023-02-16T11:33:14.353Z,337.50
2023-02-16T11:34:14.359Z,343.12
2023-02-16T11:35:14.324Z,348.75
2023-02-16T11:36:14.334Z,348.75
2023-02-16T11:37:14.336Z,348.75
2023-02-16T11:38:14.296Z,348.75
2023-02-16T11:39:14.284Z,354.38
2023-02-16T11:40:14.321Z,365.62
2023-02-16T11:41:14.292Z,376.88
2023-02-16T11:42:14.284Z,388.12
2023-02-16T11:43:14.223Z,405.00
2023-02-16T11:44:14.234Z,427.50
2023-02-16T11:45:14.203Z,455.62
2023-02-16T11:46:14.286Z,483.75
2023-02-16T11:47:14.180Z,523.12
2023-02-16T11:48:14.170Z,551.25
2023-02-16T11:49:14.197Z,562.50
2023-02-16T11:50:14.160Z,568.12
2023-02-16T11:51:14.129Z,568.12
2023-02-16T11:52:14.159Z,551.25
2023-02-16T11:53:14.110Z,528.75
2023-02-16T11:54:14.103Z,506.25
2023-02-16T11:55:14.090Z,483.75
2023-02-16T11:56:14.085Z,472.50
2023-02-16T11:57:15.660Z,466.88
2023-02-16T11:58:14.072Z,466.88
2023-02-16T11:59:14.054Z,472.50
2023-02-16T12:00:14.052Z,472.50
2023-02-16T12:01:14.022Z,466.88
2023-02-16T12:02:14.022Z,450.00
2023-02-16T12:03:14.006Z,433.12
2023-02-16T12:04:14.066Z,405.00
2023-02-16T12:05:13.997Z,382.50
2023-02-16T12:06:14.023Z,360.00
2023-02-16T12:07:13.955Z,354.38
2023-02-16T12:08:14.063Z,348.75
2023-02-16T12:09:13.927Z,354.38
2023-02-16T12:10:13.953Z,360.00
2023-02-16T12:11:14.009Z,365.62
2023-02-16T12:12:13.941Z,365.62
2023-02-16T12:13:13.896Z,354.38
2023-02-16T12:14:13.940Z,365.62
2023-02-16T12:15:13.875Z,360.00
2023-02-16T12:16:13.879Z,360.00
2023-02-16T12:17:13.860Z,376.88
2023-02-16T12:18:13.837Z,371.25
2023-02-16T12:19:13.827Z,365.62
2023-02-16T12:20:13.807Z,343.12
2023-02-16T12:21:13.787Z,309.38
2023-02-16T12:22:13.803Z,286.88
2023-02-16T12:23:13.791Z,281.25
2023-02-16T12:24:13.985Z,303.75
2023-02-16T12:25:13.758Z,337.50
2023-02-16T12:26:13.771Z,382.50
2023-02-16T12:27:13.722Z,438.75
2023-02-16T12:28:13.739Z,455.62
2023-02-16T12:29:13.750Z,450.00
2023-02-16T12:30:13.752Z,433.12
2023-02-16T12:31:13.723Z,421.88
2023-02-16T12:32:13.778Z,421.88
2023-02-16T12:33:13.668Z,421.88
2023-02-16T12:34:13.670Z,421.88
2023-02-16T12:35:13.631Z,421.88
2023-02-16T12:36:13.653Z,421.88
2023-02-16T12:37:13.612Z,416.25
2023-02-16T12:38:13.644Z,399.38
2023-02-16T12:39:13.587Z,382.50
2023-02-16T12:40:13.594Z,365.62
2023-02-16T12:41:13.565Z,360.00
2023-02-16T12:42:13.570Z,354.38
2023-02-16T12:43:13.551Z,354.38
2023-02-16T12:44:13.529Z,348.75
2023-02-16T12:45:13.523Z,348.75
2023-02-16T12:46:13.616Z,343.12
2023-02-16T12:47:13.506Z,331.88
2023-02-16T12:48:13.677Z,315.00
2023-02-16T12:49:13.479Z,286.88
2023-02-16T12:50:13.483Z,264.38
2023-02-16T12:51:13.449Z,258.75
2023-02-16T12:52:13.450Z,258.75
2023-02-16T12:53:13.448Z,258.75
2023-02-16T12:54:13.478Z,258.75